createdAt,value
2022-11-28T00:00:08.045Z,2.13
2022-11-28T00:03:02.480Z,2.11
2022-11-28T00:05:31.151Z,2.09
2022-11-28T00:08:00.001Z,2.06
2022-11-28T00:10:28.431Z,2.03
2022-11-28T00:12:56.808Z,2.00
2022-11-28T00:15:25.071Z,2.01
2022-11-28T00:17:53.436Z,2.03
2022-11-28T00:20:21.892Z,2.04
2022-11-28T00:22:50.237Z,2.04
2022-11-28T00:25:18.690Z,2.02
2022-11-28T00:27:47.071Z,2.02
2022-11-28T00:30:15.868Z,2.05
2022-11-28T00:32:44.237Z,2.08
2022-11-28T00:35:13.248Z,2.05
2022-11-28T00:37:41.951Z,2.04
2022-11-28T00:40:12.154Z,2.04
2022-11-28T00:42:40.476Z,2.05
2022-11-28T00:45:10.225Z,2.07
2022-11-28T00:47:38.509Z,2.09
2022-11-28T00:50:09.583Z,2.15
2022-11-28T00:52:38.079Z,2.15
2022-11-28T00:55:07.436Z,2.12
2022-11-28T00:57:36.868Z,2.09
2022-11-28T01:00:07.838Z,2.04
2022-11-28T01:02:38.070Z,2.08
2022-11-28T01:05:09.039Z,2.12
2022-11-28T01:07:42.352Z,2.14
2022-11-28T01:10:12.923Z,2.10
2022-11-28T01:12:41.294Z,2.10
2022-11-28T01:15:12.910Z,2.18
2022-11-28T01:17:41.181Z,2.26
2022-11-28T01:20:13.390Z,2.32
2022-11-28T01:22:41.864Z,2.36
2022-11-28T01:25:10.508Z,2.36
2022-11-28T01:27:39.026Z,2.32
2022-11-28T01:30:09.017Z,2.24
2022-11-28T01:32:37.930Z,2.22
2022-11-28T01:35:09.106Z,2.20
2022-11-28T01:37:38.090Z,2.19
2022-11-28T01:40:10.425Z,2.19
2022-11-28T01:42:39.316Z,2.26
2022-11-28T01:45:19.377Z,2.28
2022-11-28T01:47:51.128Z,2.26
2022-11-28T01:50:22.274Z,2.20
2022-11-28T01:52:55.705Z,2.12
2022-11-28T01:55:27.462Z,2.05
2022-11-28T01:57:57.562Z,2.05
2022-11-28T02:00:26.600Z,2.05
2022-11-28T02:03:00.649Z,2.05
2022-11-28T02:05:29.044Z,2.04
2022-11-28T02:07:57.442Z,2.03
2022-11-28T02:10:29.729Z,2.00
2022-11-28T02:13:13.766Z,1.95
2022-11-28T02:15:59.820Z,1.91
2022-11-28T02:18:50.346Z,1.86
2022-11-28T02:21:34.818Z,1.87
2022-11-28T02:24:41.699Z,1.88
2022-11-28T02:27:32.022Z,1.89
2022-11-28T02:30:12.151Z,1.86
2022-11-28T02:32:51.814Z,1.89
2022-11-28T02:35:24.313Z,1.90
2022-11-28T02:38:04.606Z,1.85
2022-11-28T02:40:38.799Z,1.83
2022-11-28T02:43:14.960Z,1.82
2022-11-28T02:45:50.413Z,1.77
2022-11-28T02:48:29.440Z,1.72
2022-11-28T02:51:06.035Z,1.70
2022-11-28T02:53:35.319Z,1.69
2022-11-28T02:56:04.302Z,1.70
2022-11-28T02:58:32.885Z,1.74
2022-11-28T03:01:01.630Z,1.79
2022-11-28T03:03:42.482Z,1.91
2022-11-28T03:06:19.651Z,2.01
2022-11-28T03:09:02.357Z,2.04
2022-11-28T03:11:46.317Z,2.05
2022-11-28T03:14:28.486Z,2.01
2022-11-28T03:17:10.996Z,1.94
2022-11-28T03:19:43.780Z,1.88
2022-11-28T03:22:24.258Z,1.84
2022-11-28T03:24:57.741Z,1.83
2022-11-28T03:27:32.469Z,1.77
2022-11-28T03:30:08.832Z,1.67
2022-11-28T03:32:40.082Z,1.57
2022-11-28T03:35:16.572Z,1.54
2022-11-28T03:37:50.864Z,1.58
2022-11-28T03:40:24.598Z,1.61
2022-11-28T03:42:58.475Z,1.64
2022-11-28T03:45:29.862Z,1.67
2022-11-28T03:48:01.916Z,1.63
2022-11-28T03:50:35.830Z,1.53
2022-11-28T03:53:09.821Z,1.49
2022-11-28T03:55:43.475Z,1.46
2022-11-28T03:58:17.150Z,1.49
2022-11-28T04:00:55.919Z,1.54
2022-11-28T04:03:36.818Z,1.52
2022-11-28T04:06:15.651Z,1.58
2022-11-28T04:08:49.715Z,1.62
2022-11-28T04:11:22.738Z,1.56
2022-11-28T04:13:57.094Z,1.54
2022-11-28T04:16:31.489Z,1.56
2022-11-28T04:19:08.530Z,1.57
2022-11-28T04:21:43.399Z,1.58
2022-11-28T04:24:17.610Z,1.59
2022-11-28T04:26:51.594Z,1.66
2022-11-28T04:29:24.746Z,1.70
2022-11-28T04:31:58.625Z,1.72
2022-11-28T04:34:30.531Z,1.74
2022-11-28T04:37:05.450Z,1.71
2022-11-28T04:39:39.752Z,1.63
2022-11-28T04:42:13.702Z,1.57
2022-11-28T04:44:47.144Z,1.53
2022-11-28T04:47:16.558Z,1.48
2022-11-28T04:49:45.556Z,1.46
2022-11-28T04:52:19.719Z,1.43
2022-11-28T04:54:56.795Z,1.37
2022-11-28T04:57:30.715Z,1.32
2022-11-28T05:00:04.296Z,1.30
2022-11-28T05:02:33.074Z,1.29
2022-11-28T05:05:01.968Z,1.26
2022-11-28T05:07:30.353Z,1.25
2022-11-28T05:09:58.667Z,1.23
2022-11-28T05:12:27.726Z,1.24
2022-11-28T05:14:56.009Z,1.23
2022-11-28T05:17:27.546Z,1.24
2022-11-28T05:19:55.991Z,1.21
2022-11-28T05:22:25.252Z,1.18
2022-11-28T05:24:54.334Z,1.15
2022-11-28T05:27:22.822Z,1.14
2022-11-28T05:29:52.677Z,1.10
2022-11-28T05:32:21.173Z,1.11
2022-11-28T05:34:49.710Z,1.14
2022-11-28T05:37:17.901Z,1.14
2022-11-28T05:39:46.947Z,1.10
2022-11-28T05:42:15.419Z,1.08
2022-11-28T05:44:43.899Z,1.08
2022-11-28T05:47:12.416Z,1.12
2022-11-28T05:49:41.320Z,1.17
2022-11-28T05:52:10.351Z,1.19
2022-11-28T05:54:39.300Z,1.21
2022-11-28T05:57:07.635Z,1.21
2022-11-28T05:59:36.435Z,1.18
2022-11-28T06:02:04.840Z,1.13
2022-11-28T06:04:33.547Z,1.09
2022-11-28T06:07:01.906Z,1.06
2022-11-28T06:09:30.561Z,1.06
2022-11-28T06:11:59.194Z,1.06
2022-11-28T06:14:27.515Z,1.09
2022-11-28T06:16:55.854Z,1.11
2022-11-28T06:19:24.358Z,1.13
2022-11-28T06:21:53.047Z,1.16
2022-11-28T06:24:21.285Z,1.14
2022-11-28T06:26:50.223Z,1.10
2022-11-28T06:29:18.513Z,1.05
2022-11-28T06:31:47.000Z,1.01
2022-11-28T06:34:15.833Z,0.99
2022-11-28T06:36:47.171Z,1.00
2022-11-28T06:39:16.836Z,1.00
2022-11-28T06:41:45.532Z,1.00
2022-11-28T06:44:15.327Z,1.03
2022-11-28T06:46:44.386Z,1.05
2022-11-28T06:49:13.574Z,1.08
2022-11-28T06:51:43.105Z,1.09
2022-11-28T06:54:11.848Z,1.07
2022-11-28T06:56:41.847Z,1.02
2022-11-28T06:59:12.748Z,0.99
2022-11-28T07:01:41.951Z,1.01
2022-11-28T07:04:10.692Z,1.04
2022-11-28T07:06:39.756Z,1.07
2022-11-28T07:09:08.032Z,1.07
2022-11-28T07:11:36.321Z,1.08
2022-11-28T07:14:05.169Z,1.11
2022-11-28T07:16:34.684Z,1.13
2022-11-28T07:19:03.964Z,1.15
2022-11-28T07:21:32.921Z,1.15
2022-11-28T07:24:01.987Z,1.14
2022-11-28T07:26:30.571Z,1.17
2022-11-28T07:28:59.567Z,1.15
2022-11-28T07:31:31.788Z,1.15
2022-11-28T07:34:02.644Z,1.17
2022-11-28T07:36:31.572Z,1.23
2022-11-28T07:39:02.213Z,1.26
2022-11-28T07:41:30.675Z,1.30
2022-11-28T07:44:00.741Z,1.31
2022-11-28T07:46:31.457Z,1.33
2022-11-28T07:49:00.797Z,1.37
2022-11-28T07:51:32.148Z,1.40
2022-11-28T07:54:02.571Z,1.43
2022-11-28T07:56:57.292Z,1.46
2022-11-28T07:59:21.971Z,1.50
2022-11-28T08:01:50.472Z,1.54
2022-11-28T08:04:18.909Z,1.58
2022-11-28T08:06:47.292Z,1.60
2022-11-28T08:09:15.782Z,1.64
2022-11-28T08:11:44.082Z,1.66
2022-11-28T08:14:13.639Z,1.68
2022-11-28T08:16:44.286Z,1.69
2022-11-28T08:19:12.887Z,1.69
2022-11-28T08:21:41.316Z,1.68
2022-11-28T08:24:11.527Z,1.68
2022-11-28T08:26:40.520Z,1.70
2022-11-28T08:29:10.107Z,1.71
2022-11-28T08:31:40.354Z,1.71
2022-11-28T08:34:12.071Z,1.73
2022-11-28T08:36:42.788Z,1.74
2022-11-28T08:39:26.791Z,1.78
2022-11-28T08:41:58.218Z,1.81
2022-11-28T08:44:30.464Z,1.83
2022-11-28T08:46:59.887Z,1.81
2022-11-28T08:49:28.394Z,1.79
2022-11-28T08:51:56.794Z,1.82
2022-11-28T08:54:25.698Z,1.88
2022-11-28T08:56:53.976Z,1.93
2022-11-28T08:59:22.528Z,1.96
2022-11-28T09:01:53.467Z,2.00
2022-11-28T09:04:23.533Z,2.00
2022-11-28T09:06:52.210Z,2.03
2022-11-28T09:09:20.705Z,2.03
2022-11-28T09:11:49.028Z,2.04
2022-11-28T09:14:17.419Z,2.11
2022-11-28T09:16:46.055Z,2.18
2022-11-28T09:19:14.376Z,2.25
2022-11-28T09:21:43.479Z,2.34
2022-11-28T09:24:13.673Z,2.44
2022-11-28T09:26:43.140Z,2.49
2022-11-28T09:29:11.417Z,2.55
2022-11-28T09:31:46.949Z,2.60
2022-11-28T09:34:16.162Z,2.60
2022-11-28T09:36:44.751Z,2.57
2022-11-28T09:39:13.201Z,2.60
2022-11-28T09:41:49.764Z,2.66
2022-11-28T09:44:23.577Z,2.74
2022-11-28T09:46:54.757Z,2.79
2022-11-28T09:49:39.854Z,2.83
2022-11-28T09:52:24.846Z,2.85
2022-11-28T09:55:01.552Z,2.83
2022-11-28T09:57:35.957Z,2.82
2022-11-28T10:00:06.954Z,2.82
2022-11-28T10:02:49.501Z,2.85
2022-11-28T10:05:24.241Z,2.85
2022-11-28T10:08:05.399Z,2.92
2022-11-28T10:10:49.875Z,2.96
2022-11-28T10:13:27.407Z,2.94
2022-11-28T10:16:10.297Z,2.95
2022-11-28T10:18:44.396Z,2.93
2022-11-28T10:21:24.654Z,2.92
2022-11-28T10:23:58.246Z,2.93
2022-11-28T10:26:35.593Z,2.93
2022-11-28T10:29:17.650Z,2.93
2022-11-28T10:31:47.096Z,2.93
2022-11-28T10:34:22.582Z,2.96
2022-11-28T10:37:00.189Z,2.95
2022-11-28T10:39:29.281Z,2.96
2022-11-28T10:42:13.085Z,2.96
2022-11-28T10:44:57.825Z,2.94
2022-11-28T10:47:44.419Z,2.93
2022-11-28T10:50:21.535Z,2.95
2022-11-28T10:52:56.744Z,2.94
2022-11-28T10:55:35.549Z,2.93
2022-11-28T10:58:13.023Z,2.95
2022-11-28T11:00:45.908Z,3.00
2022-11-28T11:03:17.564Z,3.07
2022-11-28T11:05:46.145Z,3.08
2022-11-28T11:08:20.317Z,3.08
2022-11-28T11:10:51.333Z,3.09
2022-11-28T11:13:22.983Z,3.06
2022-11-28T11:15:59.811Z,3.03
2022-11-28T11:18:30.779Z,3.02
2022-11-28T11:21:13.830Z,3.03
2022-11-28T11:23:43.094Z,3.04
2022-11-28T11:26:23.277Z,3.02
2022-11-28T11:28:52.256Z,3.01
2022-11-28T11:31:24.356Z,3.01
2022-11-28T11:34:00.999Z,2.98
2022-11-28T11:36:31.715Z,2.94
2022-11-28T11:39:16.282Z,2.89
2022-11-28T11:41:46.430Z,2.83
2022-11-28T11:44:30.273Z,2.80
2022-11-28T11:47:02.307Z,2.78
2022-11-28T11:49:33.502Z,2.79
2022-11-28T11:52:06.993Z,2.82
2022-11-28T11:54:35.273Z,2.88
2022-11-28T11:57:31.524Z,2.91
2022-11-28T11:59:56.514Z,2.94
2022-11-28T12:02:32.066Z,2.93
2022-11-28T12:05:05.362Z,2.86
2022-11-28T12:07:39.829Z,2.85
2022-11-28T12:10:16.184Z,2.88
2022-11-28T12:12:47.955Z,2.87
2022-11-28T12:15:21.239Z,2.87
2022-11-28T12:18:02.628Z,2.88
2022-11-28T12:20:51.592Z,2.88
2022-11-28T12:23:38.326Z,2.86
2022-11-28T12:26:18.728Z,2.81
2022-11-28T12:28:58.927Z,2.79
2022-11-28T12:31:40.575Z,2.76
2022-11-28T12:34:20.490Z,2.76
2022-11-28T12:36:57.579Z,2.74
2022-11-28T12:39:35.940Z,2.74
2022-11-28T12:42:25.614Z,2.76
2022-11-28T12:45:21.274Z,2.78
2022-11-28T12:47:59.672Z,2.78
2022-11-28T12:50:31.643Z,2.79
2022-11-28T12:53:25.663Z,2.80
2022-11-28T12:56:05.002Z,2.77
2022-11-28T12:58:40.757Z,2.73
2022-11-28T13:01:32.234Z,2.70
2022-11-28T13:04:10.790Z,2.69
2022-11-28T13:06:43.060Z,2.69
2022-11-28T13:09:30.595Z,2.71
2022-11-28T13:12:15.129Z,2.72
2022-11-28T13:14:52.086Z,2.73
2022-11-28T13:17:37.194Z,2.73
2022-11-28T13:20:19.304Z,2.71
2022-11-28T13:23:02.601Z,2.69
2022-11-28T13:25:39.922Z,2.67
2022-11-28T13:28:17.820Z,2.65
2022-11-28T13:30:51.404Z,2.60
2022-11-28T13:33:35.632Z,2.58
2022-11-28T13:36:06.825Z,2.59
2022-11-28T13:39:11.339Z,2.58
2022-11-28T13:42:16.214Z,2.61
2022-11-28T13:44:46.642Z,2.63
2022-11-28T13:47:28.388Z,2.65
2022-11-28T13:50:36.050Z,2.62
2022-11-28T13:53:21.210Z,2.57
2022-11-28T13:55:52.427Z,2.52
2022-11-28T13:58:28.665Z,2.48
2022-11-28T14:01:06.053Z,2.42
2022-11-28T14:03:36.759Z,2.42
2022-11-28T14:06:08.166Z,2.41
2022-11-28T14:08:41.257Z,2.42
2022-11-28T14:11:49.368Z,2.46
2022-11-28T14:14:48.118Z,2.47
2022-11-28T14:17:36.455Z,2.48
2022-11-28T14:20:17.933Z,2.48
2022-11-28T14:23:08.323Z,2.45
2022-11-28T14:25:43.525Z,2.40
2022-11-28T14:28:22.862Z,2.37
2022-11-28T14:31:01.156Z,2.36
2022-11-28T14:33:35.269Z,2.40
2022-11-28T14:36:28.083Z,2.43
2022-11-28T14:39:11.593Z,2.46
2022-11-28T14:42:21.289Z,2.47
2022-11-28T14:45:08.248Z,2.47
2022-11-28T14:47:42.454Z,2.45
2022-11-28T14:51:00.584Z,2.41
2022-11-28T14:53:45.813Z,2.37
2022-11-28T14:56:26.040Z,2.33
2022-11-28T14:59:00.320Z,2.34
2022-11-28T15:01:54.690Z,2.35
2022-11-28T15:04:41.217Z,2.36
2022-11-28T15:07:26.861Z,2.35
2022-11-28T15:10:08.068Z,2.34
2022-11-28T15:12:51.337Z,2.34
2022-11-28T15:15:22.249Z,2.34
2022-11-28T15:17:53.865Z,2.31
2022-11-28T15:20:28.897Z,2.26
2022-11-28T15:22:57.460Z,2.23
2022-11-28T15:25:29.131Z,2.22
2022-11-28T15:28:14.194Z,2.23
2022-11-28T15:30:47.295Z,2.25
2022-11-28T15:33:16.108Z,2.26
2022-11-28T15:35:56.249Z,2.25
2022-11-28T15:38:26.922Z,2.23
2022-11-28T15:40:57.002Z,2.21
2022-11-28T15:43:26.429Z,2.18
2022-11-28T15:45:58.504Z,2.15
2022-11-28T15:48:38.762Z,2.12
2022-11-28T15:51:25.027Z,2.11
2022-11-28T15:53:54.327Z,2.09
2022-11-28T15:56:23.115Z,2.09
2022-11-28T15:58:53.108Z,2.11
2022-11-28T16:01:24.985Z,2.13
2022-11-28T16:03:56.928Z,2.15
2022-11-28T16:06:33.848Z,2.17
2022-11-28T16:09:04.792Z,2.14
2022-11-28T16:11:36.273Z,2.11
2022-11-28T16:14:09.877Z,2.13
2022-11-28T16:16:42.391Z,2.14
2022-11-28T16:19:25.226Z,2.15
2022-11-28T16:21:56.939Z,2.15
2022-11-28T16:24:31.134Z,2.13
2022-11-28T16:27:04.698Z,2.14
2022-11-28T16:29:35.543Z,2.12
2022-11-28T16:32:08.940Z,2.09
2022-11-28T16:34:49.230Z,2.06
2022-11-28T16:37:22.822Z,2.06
2022-11-28T16:40:01.747Z,2.05
2022-11-28T16:42:31.692Z,2.06
2022-11-28T16:45:09.975Z,2.07
2022-11-28T16:47:39.494Z,2.07
2022-11-28T16:50:22.315Z,2.07
2022-11-28T16:52:52.803Z,2.06
2022-11-28T16:55:43.695Z,2.04
2022-11-28T16:58:28.985Z,2.00
2022-11-28T17:01:02.525Z,1.96
2022-11-28T17:03:49.195Z,1.92
2022-11-28T17:06:24.130Z,1.89
2022-11-28T17:08:52.892Z,1.86
2022-11-28T17:11:23.965Z,1.87
2022-11-28T17:13:57.250Z,1.88
2022-11-28T17:16:27.421Z,1.88
2022-11-28T17:18:56.208Z,1.88
2022-11-28T17:21:32.014Z,1.87
2022-11-28T17:24:01.010Z,1.85
2022-11-28T17:26:29.828Z,1.82
2022-11-28T17:28:59.202Z,1.77
2022-11-28T17:31:28.986Z,1.75
2022-11-28T17:33:57.540Z,1.74
2022-11-28T17:36:25.925Z,1.75
2022-11-28T17:38:54.662Z,1.76
2022-11-28T17:41:23.298Z,1.78
2022-11-28T17:43:51.901Z,1.80
2022-11-28T17:46:21.091Z,1.80
2022-11-28T17:48:49.408Z,1.79
2022-11-28T17:51:17.780Z,1.76
2022-11-28T17:53:46.254Z,1.71
2022-11-28T17:56:14.654Z,1.68
2022-11-28T17:58:44.401Z,1.65
2022-11-28T18:01:17.546Z,1.66
2022-11-28T18:03:46.595Z,1.68
2022-11-28T18:06:18.107Z,1.69
2022-11-28T18:08:48.736Z,1.68
2022-11-28T18:11:20.001Z,1.66
2022-11-28T18:13:49.404Z,1.65
2022-11-28T18:16:22.279Z,1.62
2022-11-28T18:18:51.214Z,1.58
2022-11-28T18:21:24.449Z,1.55
2022-11-28T18:23:53.958Z,1.53
2022-11-28T18:26:25.479Z,1.52
2022-11-28T18:28:54.509Z,1.55
2022-11-28T18:31:25.086Z,1.57
2022-11-28T18:34:00.191Z,1.56
2022-11-28T18:36:32.765Z,1.52
2022-11-28T18:39:04.203Z,1.48
2022-11-28T18:41:32.895Z,1.43
2022-11-28T18:44:04.253Z,1.37
2022-11-28T18:46:35.533Z,1.32
2022-11-28T18:49:04.571Z,1.30
2022-11-28T18:51:34.825Z,1.28
2022-11-28T18:54:04.525Z,1.25
2022-11-28T18:56:33.769Z,1.21
2022-11-28T18:59:02.494Z,1.17
2022-11-28T19:01:35.449Z,1.14
2022-11-28T19:04:08.893Z,1.11
2022-11-28T19:06:39.732Z,1.08
2022-11-28T19:09:11.288Z,1.04
2022-11-28T19:11:40.775Z,1.01
2022-11-28T19:14:10.825Z,1.00
2022-11-28T19:16:42.497Z,1.00
2022-11-28T19:19:11.105Z,0.98
2022-11-28T19:21:41.681Z,0.95
2022-11-28T19:24:11.890Z,0.92
2022-11-28T19:26:42.824Z,0.88
2022-11-28T19:29:12.362Z,0.82
2022-11-28T19:31:42.035Z,0.77
2022-11-28T19:34:14.526Z,0.74
2022-11-28T19:36:44.741Z,0.71
2022-11-28T19:39:16.604Z,0.65
2022-11-28T19:41:45.504Z,0.60
2022-11-28T19:44:15.727Z,0.57
2022-11-28T19:46:44.331Z,0.55
2022-11-28T19:49:18.931Z,0.55
2022-11-28T19:51:48.023Z,0.58
2022-11-28T19:54:19.023Z,0.59
2022-11-28T19:56:48.312Z,0.57
2022-11-28T19:59:17.827Z,0.53
2022-11-28T20:01:49.332Z,0.48
2022-11-28T20:04:18.961Z,0.45
2022-11-28T20:06:47.646Z,0.44
2022-11-28T20:09:16.107Z,0.43
2022-11-28T20:11:45.067Z,0.44
2022-11-28T20:14:16.079Z,0.47
2022-11-28T20:16:45.642Z,0.51
2022-11-28T20:19:14.468Z,0.50
2022-11-28T20:21:43.384Z,0.46
2022-11-28T20:24:12.213Z,0.41
2022-11-28T20:26:43.195Z,0.39
2022-11-28T20:29:15.673Z,0.37
2022-11-28T20:31:46.203Z,0.36
2022-11-28T20:34:18.437Z,0.37
2022-11-28T20:36:51.730Z,0.39
2022-11-28T20:39:20.497Z,0.42
2022-11-28T20:41:49.227Z,0.41
2022-11-28T20:44:18.540Z,0.38
2022-11-28T20:46:49.644Z,0.35
2022-11-28T20:49:18.667Z,0.33
2022-11-28T20:51:47.881Z,0.31
2022-11-28T20:54:17.163Z,0.33
2022-11-28T20:57:18.958Z,0.33
2022-11-28T20:59:35.477Z,0.35
2022-11-28T21:02:04.017Z,0.37
2022-11-28T21:04:33.134Z,0.37
2022-11-28T21:07:02.644Z,0.37
2022-11-28T21:09:33.725Z,0.37
2022-11-28T21:12:05.338Z,0.34
2022-11-28T21:14:34.157Z,0.31
2022-11-28T21:17:04.637Z,0.30
2022-11-28T21:19:34.616Z,0.26
2022-11-28T21:22:03.614Z,0.23
2022-11-28T21:24:34.338Z,0.23
2022-11-28T21:27:05.541Z,0.25
2022-11-28T21:29:34.893Z,0.26
2022-11-28T21:32:07.479Z,0.26
2022-11-28T21:34:36.151Z,0.28
2022-11-28T21:37:07.563Z,0.31
2022-11-28T21:39:36.031Z,0.30
2022-11-28T21:42:08.367Z,0.29
2022-11-28T21:44:37.368Z,0.24
2022-11-28T21:47:07.575Z,0.22
2022-11-28T21:49:36.063Z,0.20
2022-11-28T21:52:08.808Z,0.21
2022-11-28T21:54:37.807Z,0.23
2022-11-28T21:57:06.420Z,0.26
2022-11-28T21:59:35.259Z,0.27
2022-11-28T22:04:58.712Z,0.29
2022-11-28T22:07:34.750Z,0.29
2022-11-28T22:10:06.566Z,0.26
2022-11-28T22:12:35.566Z,0.25
2022-11-28T22:15:06.653Z,0.23
2022-11-28T22:17:36.121Z,0.22
2022-11-28T22:20:08.650Z,0.22
2022-11-28T22:22:43.258Z,0.22
2022-11-28T22:25:11.688Z,0.25
2022-11-28T22:27:41.440Z,0.26
2022-11-28T22:30:12.484Z,0.29
2022-11-28T22:32:41.184Z,0.32
2022-11-28T22:35:12.704Z,0.33
2022-11-28T22:37:41.312Z,0.32
2022-11-28T22:40:11.745Z,0.30
2022-11-28T22:42:41.458Z,0.29
2022-11-28T22:45:11.205Z,0.25
2022-11-28T22:47:42.469Z,0.21
2022-11-28T22:50:13.086Z,0.20
2022-11-28T22:52:43.675Z,0.22
2022-11-28T22:55:12.176Z,0.25
2022-11-28T22:57:41.423Z,0.26
2022-11-28T23:00:12.699Z,0.28
2022-11-28T23:02:43.166Z,0.30
2022-11-28T23:05:12.307Z,0.30
2022-11-28T23:07:41.052Z,0.30
2022-11-28T23:10:12.088Z,0.28
2022-11-28T23:12:41.407Z,0.25
2022-11-28T23:15:10.764Z,0.23
2022-11-28T23:17:40.542Z,0.22
2022-11-28T23:20:11.520Z,0.21
2022-11-28T23:22:41.023Z,0.23
2022-11-28T23:25:11.069Z,0.28
2022-11-28T23:27:41.641Z,0.31
2022-11-28T23:30:11.574Z,0.32
2022-11-28T23:32:40.641Z,0.32
2022-11-28T23:35:10.517Z,0.31
2022-11-28T23:37:39.401Z,0.30
2022-11-28T23:40:12.507Z,0.26
2022-11-28T23:42:41.590Z,0.25
2022-11-28T23:45:12.401Z,0.24
2022-11-28T23:47:41.493Z,0.25
2022-11-28T23:50:11.213Z,0.27
2022-11-28T23:52:39.849Z,0.28
2022-11-28T23:55:13.371Z,0.31
2022-11-28T23:57:43.137Z,0.33
